createdAt,value
2019-05-16T00:01:09.365Z,70.30
2019-05-16T00:03:53.379Z,70.60
2019-05-16T00:06:38.991Z,70.30
2019-05-16T00:12:24.791Z,70.40
2019-05-16T00:15:09.335Z,71.00
2019-05-16T00:17:53.577Z,71.80
2019-05-16T00:20:39.912Z,72.70
2019-05-16T00:23:23.697Z,73.50
2019-05-16T00:26:08.008Z,74.10
2019-05-16T00:28:52.140Z,74.60
2019-05-16T00:31:38.065Z,75.30
2019-05-16T00:34:23.359Z,75.20
2019-05-16T00:37:09.315Z,74.90
2019-05-16T00:39:53.416Z,75.20
2019-05-16T00:42:39.676Z,75.90
2019-05-16T00:45:23.707Z,75.40
2019-05-16T00:53:38.094Z,75.20
2019-05-16T00:56:21.578Z,76.90
2019-05-16T00:59:07.859Z,76.30
2019-05-16T01:01:52.058Z,76.90
2019-05-16T01:04:38.053Z,76.40
2019-05-16T01:07:22.885Z,76.80
2019-05-16T01:10:08.989Z,76.90
2019-05-16T01:12:52.900Z,76.60
2019-05-16T01:15:38.049Z,76.10
2019-05-16T01:18:21.968Z,76.70
2019-05-16T01:21:07.829Z,76.50
2019-05-16T01:23:53.310Z,76.50
2019-05-16T01:26:39.244Z,77.30
2019-05-16T01:29:23.497Z,77.10
2019-05-16T01:32:08.381Z,77.20
2019-05-16T01:34:53.778Z,77.20
2019-05-16T01:37:38.593Z,76.50
2019-05-16T01:40:22.545Z,76.90
2019-05-16T01:43:08.387Z,78.30
2019-05-16T01:45:51.572Z,77.40
2019-05-16T01:48:35.117Z,77.00
2019-05-16T01:51:18.897Z,78.60
2019-05-16T01:54:03.646Z,78.00
2019-05-16T01:56:48.481Z,78.60
2019-05-16T01:59:32.571Z,79.20
2019-05-16T02:02:18.531Z,79.00
2019-05-16T02:05:02.500Z,80.70
2019-05-16T02:07:48.020Z,78.90
2019-05-16T02:10:31.775Z,79.50
2019-05-16T02:13:19.318Z,80.30
2019-05-16T02:16:03.653Z,81.50
2019-05-16T02:18:48.816Z,81.40
2019-05-16T02:21:33.298Z,81.10
2019-05-16T02:24:18.249Z,80.80
2019-05-16T02:27:03.418Z,80.50
2019-05-16T02:29:48.015Z,81.30
2019-05-16T02:32:31.956Z,81.20
2019-05-16T02:35:16.080Z,81.70
2019-05-16T02:38:01.211Z,81.10
2019-05-16T02:40:45.461Z,81.60
2019-05-16T02:43:31.211Z,81.20
2019-05-16T02:46:15.120Z,81.10
2019-05-16T02:49:00.799Z,81.20
2019-05-16T02:51:44.820Z,81.30
2019-05-16T02:54:31.600Z,81.70
2019-05-16T02:57:16.348Z,82.80
2019-05-16T03:00:01.998Z,82.20
2019-05-16T03:02:46.064Z,82.00
2019-05-16T03:05:30.653Z,81.80
2019-05-16T03:08:14.319Z,83.00
2019-05-16T03:11:00.784Z,83.90
2019-05-16T03:13:44.076Z,83.70
2019-05-16T03:16:31.309Z,83.60
2019-05-16T03:21:56.895Z,85.70
2019-05-16T03:24:42.089Z,86.30
2019-05-16T03:27:25.987Z,87.10
2019-05-16T03:30:15.690Z,87.40
2019-05-16T03:32:55.914Z,87.50
2019-05-16T03:35:44.878Z,87.40
2019-05-16T03:38:26.261Z,88.40
2019-05-16T03:41:11.505Z,88.40
2019-05-16T03:43:55.853Z,89.60
2019-05-16T03:46:41.294Z,88.70
2019-05-16T03:49:27.091Z,88.90
2019-05-16T03:52:11.859Z,89.80
2019-05-16T03:54:57.271Z,89.00
2019-05-16T03:57:41.891Z,88.50
2019-05-16T04:00:52.082Z,88.10
2019-05-16T04:03:35.357Z,87.70
2019-05-16T04:06:22.182Z,88.10
2019-05-16T04:09:06.570Z,88.90
2019-05-16T04:11:51.134Z,89.90
2019-05-16T04:14:34.672Z,88.80
2019-05-16T04:17:21.116Z,88.90
2019-05-16T04:20:05.578Z,89.10
2019-05-16T04:22:51.260Z,87.80
2019-05-16T04:25:35.781Z,88.80
2019-05-16T04:28:21.837Z,90.50
2019-05-16T04:31:06.732Z,89.40
2019-05-16T04:33:51.814Z,88.90
2019-05-16T04:36:35.623Z,88.80
2019-05-16T04:39:20.875Z,90.20
2019-05-16T04:44:43.601Z,90.20
2019-05-16T04:47:31.448Z,89.00
2019-05-16T04:50:15.588Z,90.10
2019-05-16T04:53:01.366Z,89.40
2019-05-16T04:55:51.467Z,89.30
2019-05-16T04:58:51.089Z,88.80
2019-05-16T05:04:42.016Z,90.10
2019-05-16T05:07:26.527Z,90.30
2019-05-16T05:10:11.808Z,90.30
2019-05-16T05:12:56.230Z,90.00
2019-05-16T05:15:40.713Z,90.30
2019-05-16T05:18:24.329Z,89.50
2019-05-16T05:21:11.413Z,90.40
2019-05-16T05:23:54.664Z,90.50
2019-05-16T05:26:41.508Z,90.50
2019-05-16T05:29:25.650Z,90.50
2019-05-16T05:32:14.455Z,90.50
2019-05-16T05:34:59.679Z,91.10
2019-05-16T05:37:43.343Z,90.60
2019-05-16T05:40:29.691Z,90.10
2019-05-16T05:43:14.312Z,89.60
2019-05-16T05:45:47.767Z,88.90
2019-05-16T05:48:32.117Z,89.50
2019-05-16T05:51:16.358Z,88.70
2019-05-16T05:54:00.828Z,88.20
2019-05-16T05:56:50.136Z,87.10
2019-05-16T05:59:49.828Z,88.90
2019-05-16T06:02:41.520Z,85.80
2019-05-16T06:05:26.034Z,83.70
2019-05-16T06:08:14.182Z,84.40
2019-05-16T06:14:09.797Z,83.20
2019-05-16T06:17:06.505Z,85.20
2019-05-16T06:19:50.598Z,84.40
2019-05-16T06:22:34.227Z,84.50
2019-05-16T06:25:22.218Z,85.00
2019-05-16T06:28:03.904Z,83.30
2019-05-16T06:30:47.719Z,82.80
2019-05-16T06:33:23.136Z,83.20
2019-05-16T06:36:08.005Z,82.50
2019-05-16T06:38:51.530Z,82.20
2019-05-16T06:41:35.599Z,82.80
2019-05-16T06:44:20.778Z,83.50
2019-05-16T06:47:17.072Z,84.80
2019-05-16T06:49:53.248Z,84.50
2019-05-16T06:52:37.719Z,85.00
2019-05-16T06:55:21.872Z,85.40
2019-05-16T06:58:05.505Z,84.90
2019-05-16T07:00:41.047Z,85.90
2019-05-16T07:03:25.477Z,85.50
2019-05-16T07:06:11.006Z,84.70
2019-05-16T07:08:54.791Z,83.90
2019-05-16T07:11:39.795Z,85.40
2019-05-16T07:14:28.141Z,86.20
2019-05-16T07:17:10.296Z,87.60
2019-05-16T07:19:54.838Z,89.90
2019-05-16T07:22:40.581Z,90.30
2019-05-16T07:25:26.085Z,90.70
2019-05-16T07:28:12.329Z,91.90
2019-05-16T07:30:56.320Z,92.30
2019-05-16T07:33:40.728Z,92.20
2019-05-16T07:36:24.944Z,93.20
2019-05-16T07:39:10.944Z,92.60
2019-05-16T07:41:55.514Z,92.60
2019-05-16T07:44:40.878Z,91.70
2019-05-16T07:47:25.209Z,92.50
2019-05-16T07:50:10.607Z,92.00
2019-05-16T07:52:59.873Z,93.10
2019-05-16T07:55:42.997Z,92.40
2019-05-16T07:58:27.641Z,92.90
2019-05-16T08:01:12.986Z,92.60
2019-05-16T08:03:45.413Z,92.10
2019-05-16T08:06:31.084Z,91.50
2019-05-16T08:09:14.849Z,91.60
2019-05-16T08:12:05.929Z,91.80
2019-05-16T08:15:01.957Z,92.10
2019-05-16T08:17:46.441Z,91.40
2019-05-16T08:20:32.424Z,91.30
2019-05-16T08:23:17.109Z,91.00
2019-05-16T08:26:01.753Z,90.10
2019-05-16T08:28:47.017Z,90.90
2019-05-16T08:31:32.745Z,90.70
2019-05-16T08:34:20.752Z,88.80
2019-05-16T08:37:03.537Z,84.90
2019-05-16T08:39:50.971Z,87.20
2019-05-16T08:42:34.379Z,84.80
2019-05-16T08:45:21.221Z,85.20
2019-05-16T08:48:06.315Z,85.90
2019-05-16T08:50:54.657Z,88.40
2019-05-16T08:53:37.063Z,87.10
2019-05-16T08:56:22.510Z,89.60
2019-05-16T08:59:13.240Z,88.40
2019-05-16T09:01:50.741Z,88.70
2019-05-16T09:04:43.900Z,90.10
2019-05-16T09:07:13.435Z,90.40
2019-05-16T09:10:00.192Z,90.50
2019-05-16T09:12:43.537Z,90.40
2019-05-16T09:15:27.499Z,91.20
2019-05-16T09:18:11.664Z,91.20
2019-05-16T09:20:57.809Z,91.60
2019-05-16T09:23:42.756Z,92.00
2019-05-16T09:26:27.851Z,92.10
2019-05-16T09:29:12.006Z,91.30
2019-05-16T09:32:09.096Z,90.80
2019-05-16T09:34:47.639Z,90.50
2019-05-16T09:37:42.020Z,90.50
2019-05-16T09:40:27.790Z,91.70
2019-05-16T09:43:12.079Z,90.00
2019-05-16T09:46:03.421Z,91.20
2019-05-16T09:48:41.953Z,92.10
2019-05-16T09:51:27.094Z,93.00
2019-05-16T09:54:11.354Z,93.30
2019-05-16T09:56:57.182Z,93.60
2019-05-16T09:59:41.546Z,93.10
2019-05-16T10:02:27.406Z,94.00
2019-05-16T10:05:16.915Z,94.00
2019-05-16T10:08:12.187Z,94.90
2019-05-16T10:10:57.095Z,94.40
2019-05-16T10:13:41.261Z,94.00
2019-05-16T10:16:27.356Z,94.40
2019-05-16T10:22:00.009Z,95.10
2019-05-16T10:24:41.519Z,95.80
2019-05-16T10:27:26.497Z,95.10
2019-05-16T10:30:10.187Z,94.40
2019-05-16T10:32:54.535Z,95.40
2019-05-16T10:35:39.161Z,94.40
2019-05-16T10:38:23.798Z,93.90
2019-05-16T10:41:07.693Z,94.60
2019-05-16T10:43:51.842Z,94.10
2019-05-16T10:46:37.612Z,93.00
2019-05-16T10:49:34.263Z,93.60
2019-05-16T10:52:08.347Z,93.00
2019-05-16T10:54:58.510Z,92.20
2019-05-16T10:57:39.039Z,92.30
2019-05-16T11:00:57.177Z,92.20
2019-05-16T11:03:10.049Z,92.00
2019-05-16T11:06:02.949Z,91.30
2019-05-16T11:08:41.428Z,91.60
2019-05-16T11:11:13.794Z,92.40
2019-05-16T11:13:58.269Z,93.80
2019-05-16T11:16:42.609Z,94.20
2019-05-16T11:19:28.199Z,95.10
2019-05-16T11:22:13.376Z,96.00
2019-05-16T11:24:57.188Z,97.20
2019-05-16T11:27:41.174Z,97.80
2019-05-16T11:30:27.799Z,98.90
2019-05-16T11:33:10.715Z,99.90
2019-05-16T11:35:54.862Z,99.90
2019-05-16T11:38:39.675Z,99.90
2019-05-16T11:41:27.454Z,99.90
2019-05-16T11:44:11.098Z,99.90
2019-05-16T11:46:57.607Z,99.90
2019-05-16T11:49:41.073Z,99.90
2019-05-16T11:52:25.351Z,99.90
2019-05-16T11:55:09.793Z,99.90
2019-05-16T11:57:53.831Z,99.90
2019-05-16T12:00:38.266Z,99.90
2019-05-16T12:03:23.969Z,99.90
2019-05-16T12:06:10.712Z,99.90
2019-05-16T12:08:54.605Z,99.90
2019-05-16T12:11:27.553Z,99.90
2019-05-16T12:14:30.374Z,99.90
2019-05-16T12:17:16.627Z,99.90
2019-05-16T12:20:00.983Z,99.90
2019-05-16T12:22:44.642Z,99.90
2019-05-16T12:25:28.648Z,99.90
2019-05-16T12:28:13.943Z,99.90
2019-05-16T12:30:57.789Z,99.90
2019-05-16T12:33:42.129Z,99.90
2019-05-16T12:36:27.554Z,99.90
2019-05-16T12:39:11.483Z,99.90
2019-05-16T12:41:44.095Z,99.90
2019-05-16T12:44:28.909Z,99.90
2019-05-16T12:47:17.369Z,99.90
2019-05-16T12:50:01.270Z,99.90
2019-05-16T12:52:50.391Z,99.90
2019-05-16T12:55:47.680Z,99.90
2019-05-16T12:58:42.035Z,99.90
2019-05-16T13:06:51.606Z,99.90
2019-05-16T13:12:48.398Z,99.90
2019-05-16T13:15:32.528Z,99.90
2019-05-16T13:18:17.044Z,99.90
2019-05-16T13:21:01.794Z,99.90
2019-05-16T13:23:46.728Z,99.90
2019-05-16T13:26:31.225Z,99.90
2019-05-16T13:29:18.106Z,99.90
2019-05-16T13:32:02.229Z,99.90
2019-05-16T13:34:46.457Z,99.90
2019-05-16T13:37:32.422Z,99.90
2019-05-16T13:40:17.818Z,99.90
2019-05-16T13:43:01.804Z,99.90
2019-05-16T13:45:47.991Z,99.90
2019-05-16T13:48:37.650Z,99.90
2019-05-16T13:51:43.927Z,99.90
2019-05-16T13:54:27.634Z,99.90
2019-05-16T13:57:12.008Z,99.90
2019-05-16T13:59:56.784Z,99.90
2019-05-16T14:02:41.397Z,99.90
2019-05-16T14:05:26.805Z,99.90
2019-05-16T14:08:11.008Z,99.90
2019-05-16T14:11:00.703Z,99.90
2019-05-16T14:13:43.007Z,99.90
2019-05-16T14:16:27.341Z,99.90
2019-05-16T14:19:13.023Z,99.90
2019-05-16T14:21:57.174Z,99.90
2019-05-16T14:24:44.180Z,99.90
2019-05-16T14:27:28.132Z,99.90
2019-05-16T14:30:13.426Z,99.90
2019-05-16T14:33:01.316Z,99.90
2019-05-16T14:35:47.238Z,99.90
2019-05-16T14:38:39.611Z,99.90
2019-05-16T14:41:23.985Z,99.90
2019-05-16T14:44:07.955Z,99.90
2019-05-16T14:46:52.682Z,99.90
2019-05-16T14:49:37.568Z,99.50
2019-05-16T14:52:21.830Z,98.20
2019-05-16T14:55:07.531Z,97.80
2019-05-16T14:57:51.688Z,97.70
2019-05-16T15:00:38.432Z,97.60
2019-05-16T15:03:21.999Z,97.60
2019-05-16T15:06:08.685Z,96.70
2019-05-16T15:08:56.594Z,97.30
2019-05-16T15:11:28.948Z,97.10
2019-05-16T15:14:13.527Z,97.40
2019-05-16T15:16:57.787Z,97.10
2019-05-16T15:19:42.323Z,96.50
2019-05-16T15:22:27.365Z,96.80
2019-05-16T15:25:13.066Z,97.00
2019-05-16T15:27:57.592Z,97.30
2019-05-16T15:30:43.265Z,97.10
2019-05-16T15:33:27.403Z,96.90
2019-05-16T15:36:13.634Z,97.00
2019-05-16T15:38:59.511Z,97.30
2019-05-16T15:41:45.436Z,97.30
2019-05-16T15:44:30.494Z,97.20
2019-05-16T15:47:02.870Z,97.30
2019-05-16T15:49:47.697Z,97.50
2019-05-16T15:52:32.400Z,97.60
2019-05-16T15:55:17.846Z,97.60
2019-05-16T15:58:02.573Z,97.60
2019-05-16T16:00:48.434Z,98.00
2019-05-16T16:03:32.434Z,97.80
2019-05-16T16:06:21.317Z,97.80
2019-05-16T16:09:06.933Z,97.60
2019-05-16T16:11:51.202Z,98.10
2019-05-16T16:14:36.784Z,98.20
2019-05-16T16:17:21.412Z,98.30
2019-05-16T16:20:09.913Z,98.50
2019-05-16T16:22:52.246Z,99.00
2019-05-16T16:25:36.913Z,99.90
2019-05-16T16:28:21.174Z,99.90
2019-05-16T16:30:53.765Z,99.90
2019-05-16T16:33:38.383Z,99.90
2019-05-16T16:36:23.725Z,99.90
2019-05-16T16:39:08.595Z,99.90
2019-05-16T16:41:52.945Z,99.90
2019-05-16T16:44:37.031Z,99.90
2019-05-16T16:47:09.559Z,99.90
2019-05-16T16:49:54.237Z,99.90
2019-05-16T16:52:38.768Z,99.90
2019-05-16T16:55:23.150Z,99.90
2019-05-16T16:58:11.951Z,99.90
2019-05-16T17:00:56.459Z,99.90
2019-05-16T17:03:40.630Z,99.90
2019-05-16T17:06:27.082Z,99.90
2019-05-16T17:09:18.806Z,99.90
2019-05-16T17:14:46.869Z,99.90
2019-05-16T17:17:31.668Z,99.90
2019-05-16T17:20:04.093Z,99.90
2019-05-16T17:22:48.053Z,99.90
2019-05-16T17:25:33.074Z,99.90
2019-05-16T17:28:17.489Z,99.90
2019-05-16T17:31:01.888Z,99.90
2019-05-16T17:33:47.461Z,99.90
2019-05-16T17:36:32.113Z,99.90
2019-05-16T17:42:22.395Z,99.90
2019-05-16T17:45:07.505Z,99.90
2019-05-16T17:47:51.657Z,99.90
2019-05-16T17:50:37.464Z,99.90
2019-05-16T17:53:21.896Z,99.90
2019-05-16T17:56:07.205Z,99.90
2019-05-16T17:58:51.807Z,99.90
2019-05-16T18:01:36.526Z,99.90
2019-05-16T18:04:20.213Z,99.90
2019-05-16T18:07:04.254Z,99.90
2019-05-16T18:09:52.886Z,99.90
2019-05-16T18:12:37.317Z,99.90
2019-05-16T18:15:24.803Z,99.90
2019-05-16T18:18:09.143Z,99.90
2019-05-16T18:23:37.296Z,99.90
2019-05-16T18:26:21.718Z,99.90
2019-05-16T18:29:06.866Z,99.90
2019-05-16T18:31:51.680Z,99.90
2019-05-16T18:34:37.648Z,99.90
2019-05-16T18:37:21.458Z,99.90
2019-05-16T18:40:07.198Z,99.90
2019-05-16T18:42:51.947Z,99.90
2019-05-16T18:45:36.825Z,99.90
2019-05-16T18:51:23.237Z,99.90
2019-05-16T18:54:07.827Z,99.90
2019-05-16T18:56:52.378Z,99.90
2019-05-16T18:59:26.223Z,99.90
2019-05-16T19:02:17.970Z,99.90
2019-05-16T19:05:20.251Z,99.90
2019-05-16T19:08:07.401Z,99.90
2019-05-16T19:10:51.293Z,99.90
2019-05-16T19:13:24.631Z,99.90
2019-05-16T19:16:08.670Z,99.90
2019-05-16T19:18:41.293Z,99.90
2019-05-16T19:21:26.260Z,99.90
2019-05-16T19:24:10.611Z,99.90
2019-05-16T19:26:57.360Z,99.90
2019-05-16T19:29:42.098Z,99.90
2019-05-16T19:32:26.334Z,99.90
2019-05-16T19:35:10.771Z,99.90
2019-05-16T19:40:40.734Z,99.90
2019-05-16T19:43:26.573Z,99.90
2019-05-16T19:46:10.645Z,99.90
2019-05-16T19:48:57.031Z,99.90
2019-05-16T19:51:41.054Z,99.90
2019-05-16T19:54:26.986Z,99.90
2019-05-16T19:57:11.103Z,99.90
2019-05-16T19:59:56.697Z,99.90
2019-05-16T20:02:41.511Z,99.90
2019-05-16T20:05:28.176Z,99.90
2019-05-16T20:08:12.753Z,99.90
2019-05-16T20:10:57.156Z,99.90
2019-05-16T20:13:41.851Z,99.90
2019-05-16T20:16:27.319Z,99.90
2019-05-16T20:19:12.274Z,99.90
2019-05-16T20:21:58.113Z,99.90
2019-05-16T20:24:43.198Z,99.90
2019-05-16T20:27:27.451Z,99.90
2019-05-16T20:30:11.608Z,99.90
2019-05-16T20:32:55.484Z,99.90
2019-05-16T20:35:40.751Z,99.90
2019-05-16T20:38:26.636Z,99.90
2019-05-16T20:41:10.615Z,99.90
2019-05-16T20:43:56.987Z,99.90
2019-05-16T20:46:40.879Z,99.90
2019-05-16T20:49:26.997Z,99.90
2019-05-16T20:52:11.984Z,99.90
2019-05-16T20:57:41.632Z,99.90
2019-05-16T21:00:26.839Z,99.90
2019-05-16T21:03:11.448Z,99.90
2019-05-16T21:05:58.038Z,99.90
2019-05-16T21:08:42.264Z,99.90
2019-05-16T21:11:28.653Z,99.90
2019-05-16T21:14:12.284Z,99.90
2019-05-16T21:17:01.150Z,99.90
2019-05-16T21:19:44.698Z,99.90
2019-05-16T21:22:29.174Z,99.90
2019-05-16T21:25:13.420Z,99.90
2019-05-16T21:27:57.699Z,99.90
2019-05-16T21:30:41.865Z,99.90
2019-05-16T21:33:27.255Z,99.90
2019-05-16T21:36:11.199Z,99.90
2019-05-16T21:38:54.955Z,99.90
2019-05-16T21:41:39.254Z,99.90
2019-05-16T21:44:22.914Z,99.90
2019-05-16T21:47:06.731Z,99.90
2019-05-16T21:49:51.319Z,99.90
2019-05-16T21:52:24.189Z,99.90
2019-05-16T21:55:08.070Z,99.90
2019-05-16T21:57:52.167Z,99.90
2019-05-16T22:00:43.624Z,99.90
2019-05-16T22:03:40.966Z,99.90
2019-05-16T22:06:25.008Z,99.90
2019-05-16T22:09:09.525Z,99.90
2019-05-16T22:11:57.355Z,99.90
2019-05-16T22:14:46.710Z,99.90
2019-05-16T22:17:31.139Z,99.90
2019-05-16T22:20:16.534Z,99.90
2019-05-16T22:23:01.079Z,99.90
2019-05-16T22:25:48.717Z,99.90
2019-05-16T22:28:30.286Z,99.90
2019-05-16T22:31:16.462Z,99.90
2019-05-16T22:34:00.463Z,99.90
2019-05-16T22:36:49.312Z,99.90
2019-05-16T22:39:50.930Z,99.90
2019-05-16T22:42:34.698Z,99.90
2019-05-16T22:45:20.833Z,99.90
2019-05-16T22:48:07.047Z,99.90
2019-05-16T22:50:51.769Z,99.90
2019-05-16T22:53:36.879Z,99.90
2019-05-16T22:56:20.930Z,99.90
2019-05-16T22:59:07.064Z,99.90
2019-05-16T23:01:51.275Z,99.90
2019-05-16T23:04:36.684Z,99.90
2019-05-16T23:07:21.168Z,99.90
2019-05-16T23:10:07.332Z,99.90
2019-05-16T23:12:51.248Z,99.90
2019-05-16T23:15:35.543Z,99.90
2019-05-16T23:18:19.465Z,99.90
2019-05-16T23:21:03.724Z,99.90
2019-05-16T23:23:48.424Z,99.90
2019-05-16T23:26:31.904Z,99.90
2019-05-16T23:29:16.979Z,99.90
2019-05-16T23:32:01.727Z,99.90
2019-05-16T23:34:34.052Z,99.90
2019-05-16T23:37:24.211Z,99.90
2019-05-16T23:40:08.015Z,99.90
2019-05-16T23:42:52.527Z,99.90
2019-05-16T23:45:37.553Z,99.90
2019-05-16T23:48:22.162Z,99.90
2019-05-16T23:51:07.775Z,99.90
2019-05-16T23:53:57.052Z,99.90
2019-05-16T23:56:53.381Z,99.90
2019-05-16T23:59:38.203Z,99.90
